Time;durP1;ratioP1;P1;durP2;ratioP2;P2;SDS_P1;SDS_P2;PMS_P1;PMS_P2;Temp;Humidity;BMP_temperature;BMP_pressure;BME280_temperature;BME280_humidity;BME280_pressure;Samples;Min_cycle;Max_cycle;Signal;HPM_P1;HPM_P2
2021/12/22 00:01:28;;;;;;;37.83;21.30;;;;;;;;;;5078280;28;20086;-84
2021/12/22 00:03:55;;;;;;;38.78;20.70;;;;;;;;;;5079437;28;20043;-85
2021/12/22 00:06:24;;;;;;;39.20;22.17;;;;;;;;;;5097293;28;20048;-85
2021/12/22 00:08:50;;;;;;;38.75;21.40;;;;;;;;;;5098735;28;20043;-85
2021/12/22 00:11:17;;;;;;;43.03;21.77;;;;;;;;;;5098481;28;20485;-85
2021/12/22 00:13:43;;;;;;;40.50;21.67;;;-3.30;99.90;;;;;;5099192;28;20048;-85
2021/12/22 00:16:09;;;;;;;39.60;20.60;;;;;;;;;;5098944;28;20405;-85
2021/12/22 00:18:36;;;;;;;43.63;22.38;;;;;;;;;;5098926;28;20041;-85
2021/12/22 00:21:03;;;;;;;37.63;20.15;;;-3.30;99.90;;;;;;5098667;28;20248;-85
2021/12/22 00:23:30;;;;;;;36.90;20.30;;;;;;;;;;5098207;28;20134;-84
2021/12/22 00:25:56;;;;;;;42.72;20.83;;;;;;;;;;5098382;28;20126;-85
2021/12/22 00:28:22;;;;;;;35.08;19.80;;;;;;;;;;5098250;28;20052;-84
2021/12/22 00:30:51;;;;;;;36.85;20.25;;;;;;;;;;5098383;28;20053;-85
2021/12/22 00:33:17;;;;;;;43.30;21.23;;;;;;;;;;5119952;27;20051;-85
2021/12/22 00:35:45;;;;;;;43.70;21.63;;;;;;;;;;5101884;27;20122;-84
2021/12/22 00:38:14;;;;;;;43.42;21.80;;;-3.40;99.90;;;;;;5101697;27;20079;-84
2021/12/22 00:40:42;;;;;;;45.45;22.00;;;-3.40;99.90;;;;;;5101692;27;20042;-84
2021/12/22 00:43:08;;;;;;;44.38;21.35;;;;;;;;;;5118559;27;20043;-85
2021/12/22 00:45:35;;;;;;;35.75;20.77;;;;;;;;;;5101399;27;20062;-84
2021/12/22 00:48:06;;;;;;;40.45;21.73;;;-3.40;99.90;;;;;;5101483;27;20846;-84
2021/12/22 00:50:32;;;;;;;41.55;21.75;;;;;;;;;;5118742;27;20039;-84
2021/12/22 00:52:59;;;;;;;41.40;21.30;;;;;;;;;;5101534;27;20050;-85
2021/12/22 00:55:28;;;;;;;36.47;20.23;;;;;;;;;;5102326;27;20047;-84
2021/12/22 00:57:55;;;;;;;40.20;21.25;;;;;;;;;;5118538;27;20046;-84
2021/12/22 01:00:22;;;;;;;38.88;20.58;;;;;;;;;;5114515;28;20048;-84
2021/12/22 01:02:48;;;;;;;40.00;20.90;;;;;;;;;;5096268;28;20139;-85
2021/12/22 01:05:16;;;;;;;33.75;18.80;;;-3.70;99.90;;;;;;5094664;28;20056;-84
2021/12/22 01:07:44;;;;;;;41.38;20.38;;;-3.60;99.90;;;;;;5094544;28;20109;-84
2021/12/22 01:10:13;;;;;;;39.92;20.42;;;-3.60;99.90;;;;;;5094669;28;20040;-84
2021/12/22 01:12:40;;;;;;;39.15;20.00;;;;;;;;;;5094139;28;20054;-84
2021/12/22 01:15:08;;;;;;;42.40;20.70;;;-3.70;99.90;;;;;;5095687;28;20090;-84
2021/12/22 01:17:42;;;;;;;36.70;20.25;;;;;;;;;;5077115;28;20075;-84
2021/12/22 01:20:17;;;;;;;37.60;20.85;;;-3.80;99.90;;;;;;5077473;28;20105;-84
2021/12/22 01:25:12;;;;;;;36.13;20.48;;;;;;;;;;5095099;28;20084;-84
2021/12/22 01:27:41;;;;;;;41.20;20.27;;;-3.80;99.90;;;;;;5077401;28;20048;-84
2021/12/22 01:30:11;;;;;;;37.80;20.05;;;;;;;;;;5094787;28;20051;-84
2021/12/22 01:32:51;;;;;;;34.80;19.95;;;;;;;;;;5098723;28;20485;-84
2021/12/22 01:35:20;;;;;;;36.78;20.08;;;-4.00;99.90;;;;;;5097669;28;20040;-84
2021/12/22 01:37:47;;;;;;;38.40;19.63;;;;;;;;;;5097558;28;20101;-84
2021/12/22 01:40:15;;;;;;;35.92;20.02;;;-4.00;99.90;;;;;;5097247;28;20043;-83
2021/12/22 01:42:42;;;;;;;35.88;20.33;;;;;;;;;;5114089;28;20131;-84
2021/12/22 01:45:29;;;;;;;38.45;20.23;;;;;;;;;;5115819;28;20494;-84
2021/12/22 01:50:44;;;;;;;37.00;19.40;;;-4.00;99.90;;;;;;5114792;28;20075;-84
2021/12/22 01:53:34;;;;;;;32.35;18.85;;;-4.10;99.90;;;;;;5115967;28;20490;-84
2021/12/22 01:56:08;;;;;;;38.47;20.83;;;-4.00;99.90;;;;;;5098790;28;20051;-84
2021/12/22 01:58:42;;;;;;;38.63;19.70;;;-4.00;99.90;;;;;;5097621;28;20075;-84
2021/12/22 02:01:10;;;;;;;35.03;20.00;;;;;;;;;;5114469;28;20044;-84
2021/12/22 02:03:40;;;;;;;33.30;19.58;;;-4.10;99.90;;;;;;5115034;28;20054;-83
2021/12/22 02:06:08;;;;;;;35.50;19.92;;;;;;;;;;5116303;28;20082;-84
2021/12/22 02:08:35;;;;;;;36.35;20.35;;;;;;;;;;5099211;28;20052;-84
2021/12/22 02:11:02;;;;;;;36.72;20.73;;;;;;;;;;5102542;28;20111;-83
2021/12/22 02:13:33;;;;;;;35.13;19.65;;;;;;;;;;5102943;28;20119;-83
2021/12/22 02:16:07;;;;;;;36.90;20.20;;;;;;;;;;5105802;28;20056;-83
2021/12/22 02:18:37;;;;;;;36.00;19.23;;;;;;;;;;5088533;28;20040;-83
2021/12/22 02:21:04;;;;;;;36.03;19.63;;;;;;;;;;5088274;28;20482;-84
2021/12/22 02:23:30;;;;;;;32.67;19.23;;;;;;;;;;5088788;28;20044;-83
2021/12/22 02:26:03;;;;;;;34.63;19.45;;;;;;;;;;5088113;28;20040;-83
2021/12/22 02:28:33;;;;;;;31.75;18.70;;;;;;;;;;5089755;28;20048;-83
2021/12/22 02:30:59;;;;;;;35.28;19.65;;;;;;;;;;5098651;28;20043;-83
2021/12/22 02:33:34;;;;;;;35.80;19.02;;;;;;;;;;5112601;28;20028;-83
2021/12/22 02:39:00;;;;;;;33.15;19.63;;;-4.30;99.90;;;;;;5096183;28;20052;-83
2021/12/22 02:41:30;;;;;;;35.95;20.70;;;-4.40;99.90;;;;;;5114309;28;20044;-83
2021/12/22 02:43:57;;;;;;;39.25;20.70;;;-4.20;99.90;;;;;;5093464;28;20044;-83
2021/12/22 02:46:26;;;;;;;37.22;20.45;;;-4.40;99.90;;;;;;5081827;28;20051;-83
2021/12/22 02:48:56;;;;;;;40.38;20.88;;;;;;;;;;5096287;28;20099;-83
2021/12/22 02:51:23;;;;;;;37.40;20.08;;;;;;;;;;5081209;28;20077;-84
2021/12/22 02:54:03;;;;;;;37.10;20.25;;;;;;;;;;5094645;28;20048;-83
2021/12/22 02:56:53;;;;;;;38.78;20.58;;;;;;;;;;5094455;28;20040;-84
2021/12/22 03:02:36;;;;;;;38.83;21.00;;;;;;;;;;5055268;28;20048;-84
2021/12/22 03:05:03;;;;;;;42.60;21.92;;;;;;;;;;5038952;28;20257;-83
2021/12/22 03:07:31;;;;;;;42.35;22.48;;;;;;;;;;5071999;28;20102;-83
2021/12/22 03:10:00;;;;;;;40.50;21.38;;;-4.30;99.90;;;;;;5038606;28;20067;-83
2021/12/22 03:12:29;;;;;;;37.78;21.15;;;;;;;;;;5038140;28;20044;-84
2021/12/22 03:14:58;;;;;;;44.03;22.15;;;;;;;;;;5073310;28;20052;-83
2021/12/22 03:17:26;;;;;;;44.15;21.33;;;;;;;;;;5039135;28;20041;-83
2021/12/22 03:19:54;;;;;;;41.17;22.08;;;;;;;;;;5070945;28;20102;-84
2021/12/22 03:22:21;;;;;;;40.58;22.33;;;;;;;;;;5072327;28;20602;-83
2021/12/22 03:24:49;;;;;;;43.67;22.85;;;;;;;;;;5038881;28;20049;-83
2021/12/22 03:27:19;;;;;;;43.13;22.42;;;;;;;;;;5038825;28;20048;-84
2021/12/22 03:29:45;;;;;;;41.17;22.48;;;;;;;;;;5039374;28;20503;-83
2021/12/22 03:32:11;;;;;;;43.70;22.85;;;;;;;;;;5040729;28;20449;-83
2021/12/22 03:34:38;;;;;;;44.45;23.33;;;;;;;;;;5093300;28;20036;-83
2021/12/22 03:37:04;;;;;;;46.33;23.15;;;;;;;;;;5078645;28;20048;-84
2021/12/22 03:39:32;;;;;;;46.67;23.73;;;;;;;;;;5076712;28;20051;-83
2021/12/22 03:41:58;;;;;;;48.65;23.00;;;;;;;;;;5098026;28;20044;-83
2021/12/22 03:44:24;;;;;;;45.08;22.80;;;;;;;;;;5080083;28;20131;-83
2021/12/22 03:46:51;;;;;;;40.35;21.42;;;;;;;;;;5079358;28;20573;-83
2021/12/22 03:49:17;;;;;;;50.17;22.77;;;;;;;;;;5090888;28;20059;-83
2021/12/22 03:51:44;;;;;;;46.03;22.05;;;;;;;;;;5099863;28;20048;-83
2021/12/22 03:54:11;;;;;;;43.33;22.58;;;;;;;;;;5118504;28;20043;-83
2021/12/22 03:56:37;;;;;;;40.58;20.95;;;;;;;;;;5099955;28;20067;-83
2021/12/22 03:59:06;;;;;;;39.88;21.45;;;;;;;;;;5101868;27;20047;-83
2021/12/22 04:01:33;;;;;;;43.88;23.10;;;;;;;;;;5104244;27;20051;-83
2021/12/22 04:04:03;;;;;;;44.33;22.88;;;;;;;;;;5121357;27;20457;-83
2021/12/22 04:06:29;;;;;;;43.25;20.58;;;;;;;;;;5101082;28;20059;-83
2021/12/22 04:08:56;;;;;;;45.80;22.95;;;;;;;;;;5084082;28;20470;-83
2021/12/22 04:11:22;;;;;;;42.75;22.63;;;;;;;;;;5101290;28;20044;-83
2021/12/22 04:13:51;;;;;;;42.33;22.25;;;;;;;;;;5084964;28;20086;-83
2021/12/22 04:16:17;;;;;;;43.85;22.25;;;;;;;;;;5101080;28;20052;-83
2021/12/22 04:18:43;;;;;;;43.63;22.25;;;;;;;;;;5084652;28;20040;-83
2021/12/22 04:21:10;;;;;;;41.75;22.10;;;;;;;;;;5100794;28;20043;-83
2021/12/22 04:23:36;;;;;;;39.13;21.13;;;;;;;;;;5101539;28;20188;-84
2021/12/22 04:26:05;;;;;;;43.10;21.27;;;;;;;;;;5102034;28;20055;-83
2021/12/22 04:28:31;;;;;;;39.70;22.02;;;;;;;;;;5085269;28;20043;-83
2021/12/22 04:30:57;;;;;;;42.75;21.58;;;;;;;;;;5101382;28;20047;-83
2021/12/22 04:33:23;;;;;;;39.28;20.85;;;;;;;;;;5101819;28;20048;-83
2021/12/22 04:35:50;;;;;;;39.95;20.88;;;-4.30;99.90;;;;;;5102360;28;20103;-83
2021/12/22 04:38:17;;;;;;;37.50;20.58;;;;;;;;;;5085940;28;20047;-83
2021/12/22 04:40:44;;;;;;;43.97;22.20;;;;;;;;;;5102452;28;20438;-83
2021/12/22 04:43:10;;;;;;;43.15;20.70;;;;;;;;;;5086014;28;20039;-84
2021/12/22 04:45:36;;;;;;;40.85;21.42;;;;;;;;;;5101279;28;20047;-83
2021/12/22 04:48:02;;;;;;;41.10;21.85;;;;;;;;;;5085842;28;20554;-83
2021/12/22 04:50:28;;;;;;;41.17;20.85;;;;;;;;;;5084939;28;20055;-83
2021/12/22 04:52:59;;;;;;;42.50;21.48;;;;;;;;;;5101001;28;20044;-83
2021/12/22 04:55:26;;;;;;;38.90;21.95;;;;;;;;;;5085317;28;20088;-83
2021/12/22 04:57:53;;;;;;;38.95;20.60;;;;;;;;;;5086223;28;20051;-83
2021/12/22 05:00:21;;;;;;;40.53;21.02;;;;;;;;;;5103848;28;20090;-83
2021/12/22 05:02:47;;;;;;;39.42;21.33;;;;;;;;;;5086821;28;20072;-83
2021/12/22 05:05:13;;;;;;;40.33;21.50;;;;;;;;;;5087066;28;20400;-83
2021/12/22 05:07:39;;;;;;;42.22;21.30;;;;;;;;;;5087499;28;20404;-83
2021/12/22 05:10:07;;;;;;;41.60;21.58;;;-4.50;99.90;;;;;;5090180;28;20043;-83
2021/12/22 05:12:33;;;;;;;42.47;22.13;;;;;;;;;;5090488;28;20043;-83
2021/12/22 05:14:59;;;;;;;41.33;21.27;;;;;;;;;;5107196;28;20050;-84
2021/12/22 05:17:50;;;;;;;39.40;21.73;;;;;;;;;;5089233;28;20044;-83
2021/12/22 05:20:12;;;;;;;42.58;21.77;;;;;;;;;;5106318;28;20124;-84
2021/12/22 05:22:38;;;;;;;43.00;21.45;;;;;;;;;;5091747;28;20054;-83
2021/12/22 05:25:12;;;;;;;40.67;21.73;;;;;;;;;;5091979;28;20047;-83
2021/12/22 05:27:38;;;;;;;39.50;21.13;;;;;;;;;;5093051;28;20084;-83
2021/12/22 05:30:05;;;;;;;40.20;21.13;;;;;;;;;;5111601;28;20075;-83
2021/12/22 05:32:32;;;;;;;38.30;20.75;;;;;;;;;;5135651;28;20047;-83
2021/12/22 05:34:59;;;;;;;37.13;20.45;;;;;;;;;;5135232;27;20061;-83
2021/12/22 05:37:25;;;;;;;40.70;20.73;;;;;;;;;;5139508;27;20023;-83
2021/12/22 05:39:51;;;;;;;38.67;19.98;;;;;;;;;;5123660;27;20053;-83
2021/12/22 05:42:19;;;;;;;39.78;21.00;;;;;;;;;;5140125;27;20047;-83
2021/12/22 05:44:45;;;;;;;38.13;20.50;;;;;;;;;;5138343;27;20047;-83
2021/12/22 05:47:11;;;;;;;42.33;20.30;;;;;;;;;;5122233;27;20058;-83
2021/12/22 05:49:37;;;;;;;35.85;19.95;;;;;;;;;;5122887;27;20047;-83
2021/12/22 05:52:03;;;;;;;41.70;21.98;;;;;;;;;;5122535;27;20039;-83
2021/12/22 05:54:29;;;;;;;34.00;19.98;;;;;;;;;;5121666;27;20046;-83
2021/12/22 05:56:56;;;;;;;40.70;20.90;;;;;;;;;;5121150;27;20126;-83
2021/12/22 05:59:22;;;;;;;41.38;20.50;;;;;;;;;;5120774;27;20048;-83
2021/12/22 06:01:48;;;;;;;41.25;21.50;;;;;;;;;;5121345;27;20127;-83
2021/12/22 06:04:14;;;;;;;43.03;20.90;;;;;;;;;;5121012;27;20055;-84
2021/12/22 06:06:41;;;;;;;42.38;22.08;;;;;;;;;;5155019;27;20057;-83
2021/12/22 06:09:07;;;;;;;38.90;22.02;;;;;;;;;;5132877;27;20088;-83
2021/12/22 06:11:34;;;;;;;43.67;22.63;;;;;;;;;;5129950;27;20059;-84
2021/12/22 06:14:00;;;;;;;40.88;21.35;;;;;;;;;;5127879;27;20039;-83
2021/12/22 06:16:27;;;;;;;40.63;21.27;;;;;;;;;;5127069;27;20055;-84
2021/12/22 06:18:58;;;;;;;38.97;20.92;;;;;;;;;;5125847;27;20062;-83
2021/12/22 06:21:24;;;;;;;39.17;20.17;;;;;;;;;;5110944;27;20040;-84
2021/12/22 06:23:50;;;;;;;38.28;21.02;;;;;;;;;;5115412;27;20065;-84
2021/12/22 06:26:16;;;;;;;38.00;20.55;;;;;;;;;;5116387;27;20075;-84
2021/12/22 06:28:42;;;;;;;45.13;21.88;;;;;;;;;;5133500;27;20058;-84
2021/12/22 06:31:09;;;;;;;40.63;21.25;;;;;;;;;;5131458;27;20043;-84
2021/12/22 06:33:35;;;;;;;40.25;21.15;;;;;;;;;;5118351;28;20047;-84
2021/12/22 06:36:01;;;;;;;38.92;20.52;;;;;;;;;;5128138;28;20040;-85
2021/12/22 06:38:27;;;;;;;35.67;19.15;;;;;;;;;;5114692;28;20062;-85
2021/12/22 06:40:53;;;;;;;36.25;20.23;;;;;;;;;;5114921;27;20035;-84
2021/12/22 06:43:19;;;;;;;39.55;20.23;;;;;;;;;;5114454;27;20050;-84
2021/12/22 06:45:45;;;;;;;36.20;19.52;;;;;;;;;;5117050;27;20099;-84
2021/12/22 06:48:11;;;;;;;35.33;19.63;;;;;;;;;;5124087;28;20048;-84
2021/12/22 06:50:38;;;;;;;42.72;20.67;;;;;;;;;;5113862;28;20050;-84
2021/12/22 06:53:06;;;;;;;40.33;21.17;;;;;;;;;;5113227;28;20051;-84
2021/12/22 06:55:32;;;;;;;42.22;20.52;;;;;;;;;;5095535;28;20107;-84
2021/12/22 06:58:00;;;;;;;39.80;20.63;;;;;;;;;;5106936;28;20079;-83
2021/12/22 07:00:26;;;;;;;40.70;20.75;;;;;;;;;;5099490;28;20590;-84
2021/12/22 07:02:53;;;;;;;41.60;21.33;;;;;;;;;;5124410;28;20119;-83
2021/12/22 07:05:20;;;;;;;41.90;21.48;;;;;;;;;;5103816;28;20385;-84
2021/12/22 07:07:46;;;;;;;40.28;20.33;;;;;;;;;;5118192;28;20059;-84
2021/12/22 07:10:13;;;;;;;39.63;20.45;;;;;;;;;;5105942;28;20066;-84
2021/12/22 07:12:45;;;;;;;40.22;21.13;;;;;;;;;;5104535;28;20067;-84
2021/12/22 07:15:13;;;;;;;49.97;20.60;;;;;;;;;;5105229;28;20056;-83
2021/12/22 07:17:39;;;;;;;45.88;20.77;;;;;;;;;;5101909;28;20048;-84
2021/12/22 07:20:06;;;;;;;43.15;21.30;;;;;;;;;;5089008;28;20067;-83
2021/12/22 07:22:33;;;;;;;38.72;21.60;;;-4.30;99.90;;;;;;5090392;28;20044;-84
2021/12/22 07:24:59;;;;;;;37.50;21.13;;;;;;;;;;5101228;28;20048;-84
2021/12/22 07:27:25;;;;;;;40.78;20.77;;;;;;;;;;5103459;28;20032;-84
2021/12/22 07:29:51;;;;;;;44.45;21.52;;;;;;;;;;5086437;28;20055;-84
2021/12/22 07:32:17;;;;;;;41.15;21.27;;;;;;;;;;5100277;28;20046;-84
2021/12/22 07:34:47;;;;;;;43.42;20.67;;;;;;;;;;5112419;28;20044;-84
2021/12/22 07:37:19;;;;;;;44.03;20.33;;;;;;;;;;5118849;28;20044;-84
2021/12/22 07:39:46;;;;;;;41.55;20.52;;;;;;;;;;5105666;28;20129;-84
2021/12/22 07:42:12;;;;;;;46.35;21.42;;;;;;;;;;5123439;28;20074;-84
2021/12/22 07:44:38;;;;;;;43.75;21.08;;;;;;;;;;5124291;28;20047;-84
2021/12/22 07:47:04;;;;;;;43.83;22.02;;;;;;;;;;5106713;28;20080;-84
2021/12/22 07:49:30;;;;;;;40.10;22.20;;;;;;;;;;5123885;28;20044;-84
2021/12/22 07:51:56;;;;;;;41.70;21.55;;;;;;;;;;5109005;28;20422;-84
2021/12/22 07:54:22;;;;;;;41.28;21.50;;;;;;;;;;5087014;28;20471;-83
2021/12/22 07:56:48;;;;;;;41.55;22.25;;;;;;;;;;5085611;28;20052;-84
2021/12/22 07:59:14;;;;;;;42.75;22.17;;;;;;;;;;5091805;28;20067;-83
2021/12/22 08:01:41;;;;;;;43.30;22.17;;;;;;;;;;5101691;28;20483;-84
2021/12/22 08:04:06;;;;;;;43.55;21.63;;;;;;;;;;5119848;28;20125;-83
2021/12/22 08:06:33;;;;;;;47.63;22.15;;;;;;;;;;5102379;28;20063;-83
2021/12/22 08:08:59;;;;;;;46.80;22.67;;;;;;;;;;5083654;28;20048;-84
2021/12/22 08:11:28;;;;;;;46.55;23.50;;;;;;;;;;5103867;28;20055;-84
2021/12/22 08:13:57;;;;;;;47.28;23.63;;;;;;;;;;5103510;28;20046;-84
2021/12/22 08:16:23;;;;;;;49.28;25.05;;;;;;;;;;5086615;28;20044;-84
2021/12/22 08:18:49;;;;;;;43.42;23.17;;;;;;;;;;5103336;28;20044;-84
2021/12/22 08:21:15;;;;;;;47.90;23.20;;;;;;;;;;5086229;28;20040;-84
2021/12/22 08:23:44;;;;;;;49.22;23.45;;;;;;;;;;5087399;28;20718;-85
2021/12/22 08:26:11;;;;;;;40.40;21.13;;;;;;;;;;5096879;28;20044;-84
2021/12/22 08:28:37;;;;;;;39.88;21.42;;;;;;;;;;5109489;28;20044;-84
2021/12/22 08:31:03;;;;;;;42.42;22.80;;;;;;;;;;5091541;28;20102;-84
2021/12/22 08:33:32;;;;;;;41.97;21.85;;;;;;;;;;5107366;28;20402;-85
2021/12/22 08:38:50;;;;;;;45.28;22.70;;;;;;;;;;5106704;28;20052;-84
2021/12/22 08:41:28;;;;;;;42.80;22.55;;;;;;;;;;5087647;28;20452;-84
2021/12/22 08:43:56;;;;;;;43.05;22.33;;;-3.50;99.90;;;;;;5090520;28;20123;-85
2021/12/22 08:46:23;;;;;;;41.60;20.67;;;;;;;;;;5096335;28;20104;-84
2021/12/22 08:48:50;;;;;;;41.45;21.77;;;;;;;;;;5091260;28;20080;-85
2021/12/22 08:51:16;;;;;;;38.95;20.98;;;;;;;;;;5107189;28;20088;-85
2021/12/22 08:53:42;;;;;;;40.65;22.05;;;;;;;;;;5119235;28;20056;-84
2021/12/22 08:56:08;;;;;;;38.78;21.70;;;;;;;;;;5087677;28;20070;-84
2021/12/22 08:58:35;;;;;;;38.13;21.02;;;;;;;;;;5117466;28;20542;-85
2021/12/22 09:01:01;;;;;;;39.40;21.17;;;;;;;;;;5098446;28;20040;-84
2021/12/22 09:03:32;;;;;;;38.63;21.67;;;;;;;;;;5087047;28;20063;-85
2021/12/22 09:05:58;;;;;;;40.85;21.88;;;;;;;;;;5083864;28;20075;-85
2021/12/22 09:08:25;;;;;;;40.20;21.15;;;;;;;;;;5083622;28;20047;-84
2021/12/22 09:10:53;;;;;;;37.97;21.20;;;;;;;;;;5102869;28;20044;-84
2021/12/22 09:13:20;;;;;;;41.63;22.33;;;;;;;;;;5085223;28;20470;-85
2021/12/22 09:15:47;;;;;;;40.90;21.77;;;;;;;;;;5084470;28;20051;-85
2021/12/22 09:18:13;;;;;;;42.03;22.00;;;;;;;;;;5068185;28;20051;-85
2021/12/22 09:20:39;;;;;;;41.45;22.75;;;;;;;;;;5085783;28;20061;-85
2021/12/22 09:23:06;;;;;;;39.67;20.83;;;;;;;;;;5086119;28;20040;-85
2021/12/22 09:25:35;;;;;;;38.42;21.15;;;;;;;;;;5084224;28;20048;-84
2021/12/22 09:28:02;;;;;;;39.92;21.67;;;-2.60;99.90;;;;;;5090780;28;20040;-85
2021/12/22 09:30:35;;;;;;;37.50;20.23;;;-2.40;99.90;;;;;;5099792;28;20088;-85
2021/12/22 09:33:02;;;;;;;40.13;20.48;;;;;;;;;;5100756;28;20048;-85
2021/12/22 09:35:28;;;;;;;42.45;21.60;;;;;;;;;;5117285;28;20048;-85
2021/12/22 09:37:56;;;;;;;44.65;21.60;;;;;;;;;;5102952;28;20051;-84
2021/12/22 09:40:22;;;;;;;41.53;21.50;;;;;;;;;;5103133;28;20044;-84
2021/12/22 09:42:48;;;;;;;43.15;21.33;;;;;;;;;;5102474;28;20051;-84
2021/12/22 09:45:16;;;;;;;42.45;20.95;;;;;;;;;;5119994;28;20054;-85
2021/12/22 09:48:00;;;;;;;45.08;22.15;;;;;;;;;;5102447;28;20039;-85
2021/12/22 09:53:18;;;;;;;39.45;21.00;;;-1.60;99.90;;;;;;5061974;28;20048;-85
2021/12/22 09:55:44;;;;;;;41.60;20.98;;;;;;;;;;5044080;28;20052;-85
2021/12/22 09:58:11;;;;;;;50.08;22.90;;;;;;;;;;5060814;28;20049;-85
2021/12/22 10:00:37;;;;;;;44.90;21.75;;;;;;;;;;5043466;28;20060;-84
2021/12/22 10:03:05;;;;;;;51.40;21.80;;;-1.10;99.90;;;;;;5043469;28;20062;-84
2021/12/22 10:05:31;;;;;;;48.72;21.55;;;;;;;;;;5041716;28;20056;-85
2021/12/22 10:08:14;;;;;;;49.17;23.10;;;-1.10;99.90;;;;;;5041145;28;20498;-85
2021/12/22 10:10:46;;;;;;;50.10;21.95;;;-1.10;99.90;;;;;;5040682;28;20113;-85
2021/12/22 10:13:25;;;;;;;49.70;21.77;;;-1.10;99.90;;;;;;5040895;28;20045;-84
2021/12/22 10:15:51;;;;;;;45.42;20.30;;;;;;;;;;5040277;28;20048;-85
2021/12/22 10:18:22;;;;;;;45.90;19.98;;;-1.30;99.90;;;;;;5057269;28;20190;-85
2021/12/22 10:20:51;;;;;;;41.30;20.38;;;-1.30;99.90;;;;;;5057516;28;20127;-85
2021/12/22 10:23:28;;;;;;;49.30;21.25;;;-1.30;99.90;;;;;;5039818;28;20056;-84
2021/12/22 10:25:57;;;;;;;43.35;21.45;;;-1.10;99.90;;;;;;5040527;28;20048;-85
2021/12/22 10:28:25;;;;;;;45.78;21.50;;;-1.00;99.90;;;;;;5040232;28;20943;-86
2021/12/22 10:30:56;;;;;;;53.85;21.45;;;-0.90;99.90;;;;;;5083139;28;20087;-85
2021/12/22 10:33:27;;;;;;;45.25;21.67;;;-0.90;99.90;;;;;;5116490;28;20090;-85
2021/12/22 10:36:10;;;;;;;46.58;21.23;;;-0.80;99.90;;;;;;5090754;28;20504;-85
2021/12/22 10:38:36;;;;;;;47.40;19.90;;;;;;;;;;5097222;28;20048;-85
2021/12/22 10:41:10;;;;;;;41.55;19.83;;;-0.70;99.90;;;;;;5077813;28;20056;-85
2021/12/22 10:43:44;;;;;;;39.25;19.08;;;-0.70;99.90;;;;;;5096117;28;20048;-85
2021/12/22 10:46:15;;;;;;;38.85;19.25;;;;;;;;;;5078272;28;20047;-84
2021/12/22 10:51:27;;;;;;;38.03;18.67;;;;;;;;;;5095621;28;20520;-85
2021/12/22 10:53:53;;;;;;;36.10;18.67;;;;;;;;;;5078128;28;20127;-85
2021/12/22 10:56:34;;;;;;;39.97;18.95;;;-0.70;99.90;;;;;;5061594;28;20471;-85
2021/12/22 10:59:03;;;;;;;33.28;17.77;;;-0.70;99.90;;;;;;5078388;28;20078;-85
2021/12/22 11:01:29;;;;;;;39.45;19.40;;;;;;;;;;5080801;28;20048;-85
2021/12/22 11:04:03;;;;;;;49.72;19.23;;;;;;;;;;5087721;28;20474;-85
2021/12/22 11:06:31;;;;;;;35.20;18.25;;;-0.70;99.90;;;;;;5094423;28;20093;-85
2021/12/22 11:09:13;;;;;;;42.72;19.65;;;-0.60;99.90;;;;;;5094994;28;20455;-85
2021/12/22 11:11:56;;;;;;;39.15;19.67;;;-0.60;99.90;;;;;;5078251;28;20049;-85
2021/12/22 11:14:33;;;;;;;38.90;19.52;;;-0.50;99.90;;;;;;5077719;28;20032;-85
2021/12/22 11:17:02;;;;;;;39.40;18.25;;;-0.50;99.90;;;;;;5094325;28;20056;-85
2021/12/22 11:19:34;;;;;;;37.22;19.55;;;-0.50;99.90;;;;;;5080233;28;20040;-86
2021/12/22 11:22:06;;;;;;;40.03;19.45;;;;;;;;;;5097258;28;20501;-85
2021/12/22 11:24:37;;;;;;;38.28;18.20;;;-0.30;99.90;;;;;;5098034;28;20485;-85
2021/12/22 11:27:04;;;;;;;38.72;19.27;;;;;;;;;;5097498;28;20050;-85
2021/12/22 11:29:35;;;;;;;36.45;18.17;;;-0.20;99.90;;;;;;5097234;28;20039;-85
2021/12/22 11:32:06;;;;;;;38.97;18.55;;;-0.20;99.90;;;;;;5097276;28;20154;-85
2021/12/22 11:34:37;;;;;;;39.08;19.00;;;-0.20;99.90;;;;;;5087139;28;20488;-85
2021/12/22 11:37:04;;;;;;;39.20;19.70;;;;;;;;;;5093556;28;20056;-86
2021/12/22 11:39:31;;;;;;;36.47;18.70;;;-0.10;99.90;;;;;;5061203;28;20101;-84
2021/12/22 11:41:59;;;;;;;36.42;18.08;;;;;;;;;;5077697;28;20050;-85
2021/12/22 11:44:31;;;;;;;38.45;18.45;;;-0.10;99.90;;;;;;5094058;28;20093;-86
2021/12/22 11:47:09;;;;;;;37.45;18.23;;;0.00;99.90;;;;;;5076930;28;20048;-85
2021/12/22 11:49:37;;;;;;;35.17;17.15;;;;;;;;;;5077599;28;20039;-86
2021/12/22 11:52:49;;;;;;;35.90;18.13;;;0.10;99.90;;;;;;5077959;28;20139;-86
2021/12/22 11:55:27;;;;;;;32.33;17.42;;;0.10;99.90;;;;;;5060753;28;20127;-85
2021/12/22 11:58:36;;;;;;;35.22;17.33;;;0.00;99.90;;;;;;5093921;28;20406;-86
2021/12/22 12:01:11;;;;;;;36.38;17.55;;;0.00;99.90;;;;;;5075309;28;20076;-86
2021/12/22 12:03:44;;;;;;;35.03;17.27;;;;;;;;;;5080463;28;20064;-86
2021/12/22 12:06:19;;;;;;;33.25;17.35;;;0.00;99.90;;;;;;5080015;28;20055;-86
2021/12/22 12:09:11;;;;;;;36.15;17.95;;;-0.10;99.90;;;;;;5080798;28;20040;-86
2021/12/22 12:11:44;;;;;;;33.50;17.88;;;;;;;;;;5091695;28;20056;-86
2021/12/22 12:14:37;;;;;;;33.65;17.67;;;0.00;99.90;;;;;;5079610;28;20054;-85
2021/12/22 12:23:29;;;;;;;31.55;17.45;;;0.10;99.90;;;;;;5108438;28;20086;-85
2021/12/22 12:26:03;;;;;;;32.38;17.52;;;0.10;99.90;;;;;;5116578;28;20044;-85
2021/12/22 12:28:30;;;;;;;31.35;16.30;;;0.10;99.90;;;;;;5093556;28;20052;-85
2021/12/22 12:31:00;;;;;;;31.35;16.58;;;0.10;99.90;;;;;;5100161;28;20087;-85
2021/12/22 12:33:27;;;;;;;29.27;16.27;;;0.20;99.90;;;;;;5100643;28;20079;-85
2021/12/22 12:35:53;;;;;;;28.98;17.50;;;;;;;;;;5116865;28;20048;-85
2021/12/22 12:38:22;;;;;;;31.17;16.42;;;0.20;99.90;;;;;;5099973;28;20473;-84
2021/12/22 12:41:00;;;;;;;28.42;16.55;;;;;;;;;;5091270;28;20096;-85
2021/12/22 12:43:47;;;;;;;28.10;17.17;;;0.40;99.90;;;;;;5080988;28;20419;-84
2021/12/22 12:46:27;;;;;;;30.65;16.35;;;;;;;;;;5100999;28;20073;-85
2021/12/22 12:49:08;;;;;;;30.98;17.13;;;;;;;;;;5090128;28;20048;-85
2021/12/22 12:51:46;;;;;;;29.70;16.65;;;;;;;;;;5116999;28;20028;-85
2021/12/22 12:54:20;;;;;;;29.60;16.92;;;;;;;;;;5100682;28;20036;-85
2021/12/22 12:56:54;;;;;;;28.83;16.50;;;;;;;;;;5117061;28;20044;-85
2021/12/22 12:59:44;;;;;;;33.28;17.42;;;0.40;99.90;;;;;;5102238;28;20040;-85
2021/12/22 13:02:19;;;;;;;27.60;16.60;;;0.40;99.90;;;;;;5102327;28;20103;-85
2021/12/22 13:04:45;;;;;;;32.40;17.00;;;;;;;;;;5124303;27;20051;-84
2021/12/22 13:07:17;;;;;;;29.77;16.88;;;0.40;99.90;;;;;;5118174;27;20051;-85
2021/12/22 13:09:47;;;;;;;29.50;16.98;;;;;;;;;;5109888;27;20481;-84
2021/12/22 13:17:48;;;;;;;37.47;16.73;;;0.20;99.90;;;;;;5104300;28;20052;-85
2021/12/22 13:20:16;;;;;;;30.63;16.23;;;0.20;99.90;;;;;;5088014;28;20051;-84
2021/12/22 13:22:49;;;;;;;29.95;16.35;;;0.20;99.90;;;;;;5096253;28;20081;-84
2021/12/22 13:25:28;;;;;;;30.13;16.88;;;0.30;99.90;;;;;;5083208;28;20050;-84
2021/12/22 13:28:05;;;;;;;25.23;15.32;;;0.30;99.90;;;;;;5099386;28;20048;-84
2021/12/22 13:30:40;;;;;;;30.27;16.27;;;0.10;99.90;;;;;;5099226;28;20036;-84
2021/12/22 13:33:06;;;;;;;29.85;17.02;;;;;;;;;;5098042;28;20083;-84
2021/12/22 13:35:43;;;;;;;28.95;16.63;;;0.20;99.90;;;;;;5081062;28;20499;-84
2021/12/22 13:38:09;;;;;;;27.17;16.15;;;;;;;;;;5097717;28;20417;-84
2021/12/22 13:40:56;;;;;;;29.52;15.68;;;0.20;99.90;;;;;;5080522;28;20075;-84
2021/12/22 13:43:33;;;;;;;24.48;15.10;;;0.10;99.90;;;;;;5081265;28;20095;-84
2021/12/22 13:46:12;;;;;;;29.08;16.05;;;0.20;99.90;;;;;;5098098;28;20054;-84
2021/12/22 13:48:38;;;;;;;26.92;15.57;;;;;;;;;;5097907;28;20047;-85
2021/12/22 13:51:07;;;;;;;26.75;15.60;;;0.20;99.90;;;;;;5081053;28;20072;-84
2021/12/22 13:53:33;;;;;;;28.58;16.75;;;;;;;;;;5103379;27;20050;-84
2021/12/22 13:56:00;;;;;;;25.70;16.30;;;0.30;99.90;;;;;;5101526;27;20047;-84
2021/12/22 13:58:41;;;;;;;29.48;16.20;;;0.10;99.90;;;;;;5118213;27;20051;-85
2021/12/22 14:01:25;;;;;;;29.17;16.70;;;0.20;99.90;;;;;;5117943;27;20132;-84
2021/12/22 14:04:00;;;;;;;26.83;15.73;;;;;;;;;;5101035;27;20131;-84
2021/12/22 14:06:32;;;;;;;30.50;15.45;;;0.10;99.90;;;;;;5101048;27;20054;-84
2021/12/22 14:09:06;;;;;;;25.48;16.27;;;0.10;99.90;;;;;;5114519;28;20126;-84
2021/12/22 14:11:41;;;;;;;24.75;15.82;;;0.30;99.90;;;;;;5081885;28;20056;-84
2021/12/22 14:14:19;;;;;;;25.75;16.05;;;;;;;;;;5082158;28;20078;-84
2021/12/22 14:16:46;;;;;;;25.77;16.30;;;;;;;;;;5081480;28;20512;-84
2021/12/22 14:19:20;;;;;;;30.88;17.73;;;0.00;99.90;;;;;;5081833;28;20104;-84
2021/12/22 14:21:53;;;;;;;29.52;17.23;;;0.00;99.90;;;;;;5080735;28;20039;-84
2021/12/22 14:24:36;;;;;;;28.45;17.13;;;-0.10;99.90;;;;;;5110953;27;20044;-84
2021/12/22 14:27:03;;;;;;;27.40;16.65;;;-0.10;99.90;;;;;;5117809;27;20494;-85